sensor_id;sensor_type;location;lat;lon;timestamp;P1;durP1;ratioP1;P2;durP2;ratioP2
49858;SDS011;35756;52.346;13.622;2022-07-31T00:01:39;8.52;;;7.63;;
49858;SDS011;35756;52.346;13.622;2022-07-31T00:04:04;8.98;;;8.02;;
49858;SDS011;35756;52.346;13.622;2022-07-31T00:06:29;10.43;;;7.82;;
49858;SDS011;35756;52.346;13.622;2022-07-31T00:08:55;9.45;;;7.90;;
49858;SDS011;35756;52.346;13.622;2022-07-31T00:11:20;9.82;;;7.43;;
49858;SDS011;35756;52.346;13.622;2022-07-31T00:13:45;8.68;;;7.68;;
49858;SDS011;35756;52.346;13.622;2022-07-31T00:16:11;8.27;;;7.35;;
49858;SDS011;35756;52.346;13.622;2022-07-31T00:18:36;9.30;;;7.88;;
49858;SDS011;35756;52.346;13.622;2022-07-31T00:21:01;9.25;;;8.23;;
49858;SDS011;35756;52.346;13.622;2022-07-31T00:23:27;8.32;;;7.53;;
49858;SDS011;35756;52.346;13.622;2022-07-31T00:25:53;8.77;;;7.38;;
49858;SDS011;35756;52.346;13.622;2022-07-31T00:28:18;7.95;;;7.15;;
49858;SDS011;35756;52.346;13.622;2022-07-31T00:30:44;7.95;;;7.13;;
49858;SDS011;35756;52.346;13.622;2022-07-31T00:33:09;8.27;;;7.47;;
49858;SDS011;35756;52.346;13.622;2022-07-31T00:35:34;8.75;;;7.30;;
49858;SDS011;35756;52.346;13.622;2022-07-31T00:37:59;9.07;;;7.40;;
49858;SDS011;35756;52.346;13.622;2022-07-31T00:40:25;9.55;;;7.45;;
49858;SDS011;35756;52.346;13.622;2022-07-31T00:42:50;8.10;;;7.30;;
49858;SDS011;35756;52.346;13.622;2022-07-31T00:45:15;8.25;;;7.45;;
49858;SDS011;35756;52.346;13.622;2022-07-31T00:47:41;10.85;;;6.65;;
49858;SDS011;35756;52.346;13.622;2022-07-31T00:50:06;7.50;;;6.80;;
49858;SDS011;35756;52.346;13.622;2022-07-31T00:52:32;10.25;;;6.53;;
49858;SDS011;35756;52.346;13.622;2022-07-31T00:54:57;8.65;;;7.00;;
49858;SDS011;35756;52.346;13.622;2022-07-31T00:57:23;8.10;;;6.90;;
49858;SDS011;35756;52.346;13.622;2022-07-31T00:59:48;6.95;;;6.25;;
49858;SDS011;35756;52.346;13.622;2022-07-31T01:02:13;12.45;;;7.45;;
49858;SDS011;35756;52.346;13.622;2022-07-31T01:04:39;9.18;;;7.13;;
49858;SDS011;35756;52.346;13.622;2022-07-31T01:07:04;8.40;;;7.00;;
49858;SDS011;35756;52.346;13.622;2022-07-31T01:09:29;8.95;;;7.10;;
49858;SDS011;35756;52.346;13.622;2022-07-31T01:12:02;9.05;;;7.20;;
49858;SDS011;35756;52.346;13.622;2022-07-31T01:14:32;8.50;;;6.82;;
49858;SDS011;35756;52.346;13.622;2022-07-31T01:17:00;9.20;;;7.00;;
49858;SDS011;35756;52.346;13.622;2022-07-31T01:19:37;11.63;;;6.55;;
49858;SDS011;35756;52.346;13.622;2022-07-31T01:25:02;7.45;;;6.75;;
49858;SDS011;35756;52.346;13.622;2022-07-31T01:27:41;7.13;;;6.28;;
49858;SDS011;35756;52.346;13.622;2022-07-31T01:30:22;8.93;;;6.47;;
49858;SDS011;35756;52.346;13.622;2022-07-31T01:32:50;7.50;;;6.50;;
49858;SDS011;35756;52.346;13.622;2022-07-31T01:35:26;7.00;;;5.95;;
49858;SDS011;35756;52.346;13.622;2022-07-31T01:37:54;6.95;;;6.22;;
49858;SDS011;35756;52.346;13.622;2022-07-31T01:40:25;7.43;;;6.72;;
49858;SDS011;35756;52.346;13.622;2022-07-31T01:42:57;8.27;;;6.60;;
49858;SDS011;35756;52.346;13.622;2022-07-31T01:45:27;7.95;;;6.68;;
49858;SDS011;35756;52.346;13.622;2022-07-31T01:47:53;6.75;;;6.05;;
49858;SDS011;35756;52.346;13.622;2022-07-31T01:50:19;7.72;;;6.53;;
49858;SDS011;35756;52.346;13.622;2022-07-31T01:52:44;7.15;;;6.28;;
49858;SDS011;35756;52.346;13.622;2022-07-31T01:55:10;7.32;;;5.97;;
49858;SDS011;35756;52.346;13.622;2022-07-31T01:57:37;8.02;;;7.15;;
49858;SDS011;35756;52.346;13.622;2022-07-31T02:00:05;8.13;;;6.05;;
49858;SDS011;35756;52.346;13.622;2022-07-31T02:02:32;9.10;;;6.70;;
49858;SDS011;35756;52.346;13.622;2022-07-31T02:04:58;7.53;;;6.30;;
49858;SDS011;35756;52.346;13.622;2022-07-31T02:07:24;8.02;;;5.85;;
49858;SDS011;35756;52.346;13.622;2022-07-31T02:09:50;7.88;;;6.28;;
49858;SDS011;35756;52.346;13.622;2022-07-31T02:12:15;8.20;;;6.53;;
49858;SDS011;35756;52.346;13.622;2022-07-31T02:14:42;9.70;;;6.47;;
49858;SDS011;35756;52.346;13.622;2022-07-31T02:17:08;8.77;;;6.18;;
49858;SDS011;35756;52.346;13.622;2022-07-31T02:19:35;7.53;;;6.53;;
49858;SDS011;35756;52.346;13.622;2022-07-31T02:22:03;8.27;;;6.60;;
49858;SDS011;35756;52.346;13.622;2022-07-31T02:24:28;9.40;;;6.18;;
49858;SDS011;35756;52.346;13.622;2022-07-31T02:26:54;12.57;;;9.55;;
49858;SDS011;35756;52.346;13.622;2022-07-31T02:29:20;12.02;;;9.40;;
49858;SDS011;35756;52.346;13.622;2022-07-31T02:31:47;12.38;;;9.65;;
49858;SDS011;35756;52.346;13.622;2022-07-31T02:34:14;12.27;;;9.27;;
49858;SDS011;35756;52.346;13.622;2022-07-31T02:36:41;11.32;;;8.13;;
49858;SDS011;35756;52.346;13.622;2022-07-31T02:39:09;9.07;;;7.80;;
49858;SDS011;35756;52.346;13.622;2022-07-31T02:41:35;9.23;;;6.88;;
49858;SDS011;35756;52.346;13.622;2022-07-31T02:44:00;7.55;;;6.63;;
49858;SDS011;35756;52.346;13.622;2022-07-31T02:46:26;7.07;;;6.35;;
49858;SDS011;35756;52.346;13.622;2022-07-31T02:48:52;7.55;;;6.40;;
49858;SDS011;35756;52.346;13.622;2022-07-31T02:51:17;7.07;;;6.38;;
49858;SDS011;35756;52.346;13.622;2022-07-31T02:53:43;7.50;;;6.70;;
49858;SDS011;35756;52.346;13.622;2022-07-31T02:56:08;8.13;;;6.63;;
49858;SDS011;35756;52.346;13.622;2022-07-31T02:58:36;7.30;;;6.60;;
49858;SDS011;35756;52.346;13.622;2022-07-31T03:01:03;9.02;;;6.80;;
49858;SDS011;35756;52.346;13.622;2022-07-31T03:03:29;9.18;;;6.35;;
49858;SDS011;35756;52.346;13.622;2022-07-31T03:05:55;9.15;;;6.65;;
49858;SDS011;35756;52.346;13.622;2022-07-31T03:08:20;9.88;;;6.93;;
49858;SDS011;35756;52.346;13.622;2022-07-31T03:10:46;8.52;;;7.15;;
49858;SDS011;35756;52.346;13.622;2022-07-31T03:13:11;7.72;;;6.93;;
49858;SDS011;35756;52.346;13.622;2022-07-31T03:15:37;8.38;;;6.78;;
49858;SDS011;35756;52.346;13.622;2022-07-31T03:18:03;7.30;;;6.60;;
49858;SDS011;35756;52.346;13.622;2022-07-31T03:20:29;8.38;;;6.60;;
49858;SDS011;35756;52.346;13.622;2022-07-31T03:22:54;7.47;;;6.72;;
49858;SDS011;35756;52.346;13.622;2022-07-31T03:25:20;7.43;;;6.47;;
49858;SDS011;35756;52.346;13.622;2022-07-31T03:27:45;7.15;;;6.45;;
49858;SDS011;35756;52.346;13.622;2022-07-31T03:30:15;7.50;;;6.68;;
49858;SDS011;35756;52.346;13.622;2022-07-31T03:32:42;7.90;;;6.72;;
49858;SDS011;35756;52.346;13.622;2022-07-31T03:35:07;7.85;;;7.05;;
49858;SDS011;35756;52.346;13.622;2022-07-31T03:37:33;7.30;;;6.60;;
49858;SDS011;35756;52.346;13.622;2022-07-31T03:39:58;7.22;;;6.50;;
49858;SDS011;35756;52.346;13.622;2022-07-31T03:42:24;9.55;;;6.95;;
49858;SDS011;35756;52.346;13.622;2022-07-31T03:44:49;7.35;;;6.63;;
49858;SDS011;35756;52.346;13.622;2022-07-31T03:47:15;7.90;;;6.60;;
49858;SDS011;35756;52.346;13.622;2022-07-31T03:49:40;7.40;;;6.60;;
49858;SDS011;35756;52.346;13.622;2022-07-31T03:52:06;8.82;;;6.97;;
49858;SDS011;35756;52.346;13.622;2022-07-31T03:54:31;7.43;;;6.72;;
49858;SDS011;35756;52.346;13.622;2022-07-31T03:56:56;8.23;;;7.32;;
49858;SDS011;35756;52.346;13.622;2022-07-31T03:59:22;7.03;;;6.30;;
49858;SDS011;35756;52.346;13.622;2022-07-31T04:01:48;8.15;;;6.78;;
49858;SDS011;35756;52.346;13.622;2022-07-31T04:04:13;8.25;;;7.15;;
49858;SDS011;35756;52.346;13.622;2022-07-31T04:06:38;8.75;;;7.63;;
49858;SDS011;35756;52.346;13.622;2022-07-31T04:09:04;9.07;;;6.97;;
49858;SDS011;35756;52.346;13.622;2022-07-31T04:11:30;8.38;;;7.43;;
49858;SDS011;35756;52.346;13.622;2022-07-31T04:13:55;8.40;;;7.50;;
49858;SDS011;35756;52.346;13.622;2022-07-31T04:16:20;7.93;;;7.00;;
49858;SDS011;35756;52.346;13.622;2022-07-31T04:18:46;7.95;;;6.90;;
49858;SDS011;35756;52.346;13.622;2022-07-31T04:21:11;8.02;;;7.22;;
49858;SDS011;35756;52.346;13.622;2022-07-31T04:23:36;8.55;;;7.70;;
49858;SDS011;35756;52.346;13.622;2022-07-31T04:26:02;8.30;;;7.35;;
49858;SDS011;35756;52.346;13.622;2022-07-31T04:28:27;7.80;;;7.10;;
49858;SDS011;35756;52.346;13.622;2022-07-31T04:30:53;9.77;;;8.13;;
49858;SDS011;35756;52.346;13.622;2022-07-31T04:33:18;8.65;;;7.75;;
49858;SDS011;35756;52.346;13.622;2022-07-31T04:35:43;9.07;;;8.18;;
49858;SDS011;35756;52.346;13.622;2022-07-31T04:38:08;8.60;;;7.70;;
49858;SDS011;35756;52.346;13.622;2022-07-31T04:40:35;11.07;;;8.05;;
49858;SDS011;35756;52.346;13.622;2022-07-31T04:43:01;8.77;;;7.88;;
49858;SDS011;35756;52.346;13.622;2022-07-31T04:45:26;9.07;;;7.55;;
49858;SDS011;35756;52.346;13.622;2022-07-31T04:47:52;7.85;;;6.90;;
49858;SDS011;35756;52.346;13.622;2022-07-31T04:50:17;9.38;;;7.60;;
49858;SDS011;35756;52.346;13.622;2022-07-31T04:52:42;8.82;;;7.93;;
49858;SDS011;35756;52.346;13.622;2022-07-31T04:55:08;8.20;;;7.38;;
49858;SDS011;35756;52.346;13.622;2022-07-31T04:57:33;8.80;;;7.90;;
49858;SDS011;35756;52.346;13.622;2022-07-31T04:59:58;8.65;;;7.45;;
49858;SDS011;35756;52.346;13.622;2022-07-31T05:02:24;9.38;;;6.97;;
49858;SDS011;35756;52.346;13.622;2022-07-31T05:04:49;8.20;;;7.35;;
49858;SDS011;35756;52.346;13.622;2022-07-31T05:07:14;8.05;;;7.25;;
49858;SDS011;35756;52.346;13.622;2022-07-31T05:09:39;8.00;;;6.85;;
49858;SDS011;35756;52.346;13.622;2022-07-31T05:12:05;8.05;;;7.25;;
49858;SDS011;35756;52.346;13.622;2022-07-31T05:14:30;8.20;;;7.15;;
49858;SDS011;35756;52.346;13.622;2022-07-31T05:16:55;11.88;;;7.72;;
49858;SDS011;35756;52.346;13.622;2022-07-31T05:19:21;9.30;;;8.05;;
49858;SDS011;35756;52.346;13.622;2022-07-31T05:21:46;9.23;;;8.13;;
49858;SDS011;35756;52.346;13.622;2022-07-31T05:24:11;8.82;;;8.02;;
49858;SDS011;35756;52.346;13.622;2022-07-31T05:26:36;9.20;;;7.93;;
49858;SDS011;35756;52.346;13.622;2022-07-31T05:29:03;10.68;;;8.82;;
49858;SDS011;35756;52.346;13.622;2022-07-31T05:31:28;8.30;;;7.50;;
49858;SDS011;35756;52.346;13.622;2022-07-31T05:33:54;9.25;;;7.53;;
49858;SDS011;35756;52.346;13.622;2022-07-31T05:36:19;8.02;;;7.05;;
49858;SDS011;35756;52.346;13.622;2022-07-31T05:38:45;10.02;;;7.70;;
49858;SDS011;35756;52.346;13.622;2022-07-31T05:41:10;9.57;;;7.97;;
49858;SDS011;35756;52.346;13.622;2022-07-31T05:43:36;8.25;;;6.80;;
49858;SDS011;35756;52.346;13.622;2022-07-31T05:46:02;8.40;;;7.53;;
49858;SDS011;35756;52.346;13.622;2022-07-31T05:48:27;10.38;;;6.63;;
49858;SDS011;35756;52.346;13.622;2022-07-31T05:50:53;7.22;;;6.47;;
49858;SDS011;35756;52.346;13.622;2022-07-31T05:53:18;9.25;;;6.90;;
49858;SDS011;35756;52.346;13.622;2022-07-31T05:55:44;7.30;;;6.60;;
49858;SDS011;35756;52.346;13.622;2022-07-31T05:58:11;8.30;;;6.45;;
49858;SDS011;35756;52.346;13.622;2022-07-31T06:00:37;6.80;;;6.10;;
49858;SDS011;35756;52.346;13.622;2022-07-31T06:03:03;6.70;;;5.95;;
49858;SDS011;35756;52.346;13.622;2022-07-31T06:05:29;9.88;;;5.95;;
49858;SDS011;35756;52.346;13.622;2022-07-31T06:07:55;6.90;;;5.93;;
49858;SDS011;35756;52.346;13.622;2022-07-31T06:10:21;5.88;;;5.28;;
49858;SDS011;35756;52.346;13.622;2022-07-31T06:12:46;6.63;;;5.40;;
49858;SDS011;35756;52.346;13.622;2022-07-31T06:15:12;8.23;;;5.72;;
49858;SDS011;35756;52.346;13.622;2022-07-31T06:17:37;6.18;;;5.57;;
49858;SDS011;35756;52.346;13.622;2022-07-31T06:20:03;5.80;;;5.20;;
49858;SDS011;35756;52.346;13.622;2022-07-31T06:22:29;6.85;;;5.63;;
49858;SDS011;35756;52.346;13.622;2022-07-31T06:24:54;6.75;;;5.70;;
49858;SDS011;35756;52.346;13.622;2022-07-31T06:27:20;6.85;;;5.07;;
49858;SDS011;35756;52.346;13.622;2022-07-31T06:29:46;7.00;;;4.50;;
49858;SDS011;35756;52.346;13.622;2022-07-31T06:32:11;5.10;;;4.22;;
49858;SDS011;35756;52.346;13.622;2022-07-31T06:34:36;5.85;;;4.30;;
49858;SDS011;35756;52.346;13.622;2022-07-31T06:37:01;5.93;;;4.25;;
49858;SDS011;35756;52.346;13.622;2022-07-31T06:39:27;5.15;;;4.32;;
49858;SDS011;35756;52.346;13.622;2022-07-31T06:41:52;5.78;;;4.45;;
49858;SDS011;35756;52.346;13.622;2022-07-31T06:44:18;4.75;;;4.00;;
49858;SDS011;35756;52.346;13.622;2022-07-31T06:46:44;5.63;;;4.53;;
49858;SDS011;35756;52.346;13.622;2022-07-31T06:49:10;7.03;;;4.25;;
49858;SDS011;35756;52.346;13.622;2022-07-31T06:51:35;5.03;;;3.80;;
49858;SDS011;35756;52.346;13.622;2022-07-31T06:54:02;5.85;;;4.45;;
49858;SDS011;35756;52.346;13.622;2022-07-31T06:56:28;9.32;;;3.80;;
49858;SDS011;35756;52.346;13.622;2022-07-31T06:58:54;5.63;;;4.00;;
49858;SDS011;35756;52.346;13.622;2022-07-31T07:01:20;5.82;;;3.92;;
49858;SDS011;35756;52.346;13.622;2022-07-31T07:03:45;5.35;;;4.18;;
49858;SDS011;35756;52.346;13.622;2022-07-31T07:06:11;5.85;;;3.45;;
49858;SDS011;35756;52.346;13.622;2022-07-31T07:08:36;6.97;;;3.92;;
49858;SDS011;35756;52.346;13.622;2022-07-31T07:11:02;4.82;;;3.75;;
49858;SDS011;35756;52.346;13.622;2022-07-31T07:13:27;5.30;;;3.80;;
49858;SDS011;35756;52.346;13.622;2022-07-31T07:15:52;6.18;;;4.10;;
49858;SDS011;35756;52.346;13.622;2022-07-31T07:18:18;5.18;;;3.95;;
49858;SDS011;35756;52.346;13.622;2022-07-31T07:20:45;5.88;;;4.05;;
49858;SDS011;35756;52.346;13.622;2022-07-31T07:23:11;5.35;;;4.45;;
49858;SDS011;35756;52.346;13.622;2022-07-31T07:25:36;5.20;;;4.13;;
49858;SDS011;35756;52.346;13.622;2022-07-31T07:28:01;8.27;;;4.43;;
49858;SDS011;35756;52.346;13.622;2022-07-31T07:30:27;6.22;;;4.55;;
49858;SDS011;35756;52.346;13.622;2022-07-31T07:32:52;5.50;;;4.07;;
49858;SDS011;35756;52.346;13.622;2022-07-31T07:35:18;6.97;;;4.40;;
49858;SDS011;35756;52.346;13.622;2022-07-31T07:37:44;7.53;;;4.75;;
49858;SDS011;35756;52.346;13.622;2022-07-31T07:40:09;5.53;;;4.47;;
49858;SDS011;35756;52.346;13.622;2022-07-31T07:42:35;4.93;;;4.22;;
49858;SDS011;35756;52.346;13.622;2022-07-31T07:45:00;6.90;;;4.25;;
49858;SDS011;35756;52.346;13.622;2022-07-31T07:47:26;6.30;;;5.00;;
49858;SDS011;35756;52.346;13.622;2022-07-31T07:49:51;6.30;;;4.70;;
49858;SDS011;35756;52.346;13.622;2022-07-31T07:52:17;7.50;;;4.90;;
49858;SDS011;35756;52.346;13.622;2022-07-31T07:54:42;7.95;;;4.82;;
49858;SDS011;35756;52.346;13.622;2022-07-31T07:57:08;7.03;;;5.10;;
49858;SDS011;35756;52.346;13.622;2022-07-31T07:59:34;6.53;;;5.40;;
49858;SDS011;35756;52.346;13.622;2022-07-31T08:01:59;6.90;;;5.00;;
49858;SDS011;35756;52.346;13.622;2022-07-31T08:04:25;6.30;;;5.10;;
49858;SDS011;35756;52.346;13.622;2022-07-31T08:06:50;7.05;;;4.40;;
49858;SDS011;35756;52.346;13.622;2022-07-31T08:09:15;6.15;;;4.50;;
49858;SDS011;35756;52.346;13.622;2022-07-31T08:11:41;7.22;;;4.55;;
49858;SDS011;35756;52.346;13.622;2022-07-31T08:14:06;5.55;;;4.47;;
49858;SDS011;35756;52.346;13.622;2022-07-31T08:16:31;4.72;;;4.32;;
49858;SDS011;35756;52.346;13.622;2022-07-31T08:18:57;5.85;;;4.55;;
49858;SDS011;35756;52.346;13.622;2022-07-31T08:21:22;5.82;;;4.70;;
49858;SDS011;35756;52.346;13.622;2022-07-31T08:23:48;7.47;;;4.75;;
49858;SDS011;35756;52.346;13.622;2022-07-31T08:26:13;5.50;;;4.13;;
49858;SDS011;35756;52.346;13.622;2022-07-31T08:28:39;7.68;;;4.78;;
49858;SDS011;35756;52.346;13.622;2022-07-31T08:31:04;6.90;;;4.15;;
49858;SDS011;35756;52.346;13.622;2022-07-31T08:33:29;4.93;;;4.40;;
49858;SDS011;35756;52.346;13.622;2022-07-31T08:35:56;6.53;;;4.20;;
49858;SDS011;35756;52.346;13.622;2022-07-31T08:38:22;5.82;;;4.28;;
49858;SDS011;35756;52.346;13.622;2022-07-31T08:40:47;4.80;;;4.30;;
49858;SDS011;35756;52.346;13.622;2022-07-31T08:43:12;6.13;;;3.92;;
49858;SDS011;35756;52.346;13.622;2022-07-31T08:45:39;5.10;;;4.05;;
49858;SDS011;35756;52.346;13.622;2022-07-31T08:48:06;4.13;;;3.63;;
49858;SDS011;35756;52.346;13.622;2022-07-31T08:50:32;5.43;;;4.10;;
49858;SDS011;35756;52.346;13.622;2022-07-31T08:52:59;5.47;;;3.90;;
49858;SDS011;35756;52.346;13.622;2022-07-31T08:55:24;5.07;;;3.95;;
49858;SDS011;35756;52.346;13.622;2022-07-31T08:57:50;5.63;;;4.20;;
49858;SDS011;35756;52.346;13.622;2022-07-31T09:00:16;4.55;;;3.95;;
49858;SDS011;35756;52.346;13.622;2022-07-31T09:02:43;5.03;;;3.90;;
49858;SDS011;35756;52.346;13.622;2022-07-31T09:05:08;4.75;;;4.03;;
49858;SDS011;35756;52.346;13.622;2022-07-31T09:07:34;5.07;;;3.80;;
49858;SDS011;35756;52.346;13.622;2022-07-31T09:09:59;5.80;;;3.97;;
49858;SDS011;35756;52.346;13.622;2022-07-31T09:12:31;5.05;;;3.80;;
49858;SDS011;35756;52.346;13.622;2022-07-31T09:14:57;5.57;;;3.80;;
49858;SDS011;35756;52.346;13.622;2022-07-31T09:17:30;5.68;;;3.38;;
49858;SDS011;35756;52.346;13.622;2022-07-31T09:19:56;6.35;;;3.72;;
49858;SDS011;35756;52.346;13.622;2022-07-31T09:22:22;4.97;;;3.70;;
49858;SDS011;35756;52.346;13.622;2022-07-31T09:24:48;4.22;;;3.72;;
49858;SDS011;35756;52.346;13.622;2022-07-31T09:27:13;4.30;;;3.53;;
49858;SDS011;35756;52.346;13.622;2022-07-31T09:29:41;4.15;;;3.42;;
49858;SDS011;35756;52.346;13.622;2022-07-31T09:32:09;4.07;;;3.25;;
49858;SDS011;35756;52.346;13.622;2022-07-31T09:34:34;5.07;;;3.40;;
49858;SDS011;35756;52.346;13.622;2022-07-31T09:37:06;3.83;;;3.30;;
49858;SDS011;35756;52.346;13.622;2022-07-31T09:39:32;4.95;;;3.70;;
49858;SDS011;35756;52.346;13.622;2022-07-31T09:41:58;5.13;;;3.38;;
49858;SDS011;35756;52.346;13.622;2022-07-31T09:44:23;5.82;;;3.97;;
49858;SDS011;35756;52.346;13.622;2022-07-31T09:46:48;4.30;;;3.75;;
49858;SDS011;35756;52.346;13.622;2022-07-31T09:49:15;6.75;;;3.85;;
49858;SDS011;35756;52.346;13.622;2022-07-31T09:51:41;6.45;;;4.18;;
49858;SDS011;35756;52.346;13.622;2022-07-31T09:56:50;4.43;;;3.50;;
49858;SDS011;35756;52.346;13.622;2022-07-31T09:59:16;7.07;;;3.80;;
49858;SDS011;35756;52.346;13.622;2022-07-31T10:01:42;4.18;;;3.50;;
49858;SDS011;35756;52.346;13.622;2022-07-31T10:04:07;3.75;;;3.17;;
49858;SDS011;35756;52.346;13.622;2022-07-31T10:06:33;5.90;;;3.78;;
49858;SDS011;35756;52.346;13.622;2022-07-31T10:08:59;5.78;;;3.60;;
49858;SDS011;35756;52.346;13.622;2022-07-31T10:11:27;5.00;;;3.83;;
49858;SDS011;35756;52.346;13.622;2022-07-31T10:13:55;4.63;;;3.78;;
49858;SDS011;35756;52.346;13.622;2022-07-31T10:16:22;4.90;;;3.60;;
49858;SDS011;35756;52.346;13.622;2022-07-31T10:18:51;5.22;;;3.80;;
49858;SDS011;35756;52.346;13.622;2022-07-31T10:21:19;5.45;;;3.50;;
49858;SDS011;35756;52.346;13.622;2022-07-31T10:23:48;5.00;;;3.35;;
49858;SDS011;35756;52.346;13.622;2022-07-31T10:26:13;3.63;;;3.03;;
49858;SDS011;35756;52.346;13.622;2022-07-31T10:28:39;4.22;;;3.25;;
49858;SDS011;35756;52.346;13.622;2022-07-31T10:31:05;4.47;;;3.50;;
49858;SDS011;35756;52.346;13.622;2022-07-31T10:33:30;4.45;;;3.45;;
49858;SDS011;35756;52.346;13.622;2022-07-31T10:36:04;4.00;;;3.22;;
49858;SDS011;35756;52.346;13.622;2022-07-31T10:38:39;3.95;;;3.28;;
49858;SDS011;35756;52.346;13.622;2022-07-31T10:44:02;4.50;;;3.30;;
49858;SDS011;35756;52.346;13.622;2022-07-31T10:46:31;4.95;;;3.45;;
49858;SDS011;35756;52.346;13.622;2022-07-31T10:48:57;4.57;;;3.28;;
49858;SDS011;35756;52.346;13.622;2022-07-31T10:51:23;3.80;;;3.40;;
49858;SDS011;35756;52.346;13.622;2022-07-31T10:56:18;4.65;;;3.38;;
49858;SDS011;35756;52.346;13.622;2022-07-31T10:58:47;6.22;;;3.55;;
49858;SDS011;35756;52.346;13.622;2022-07-31T11:01:14;4.90;;;3.65;;
49858;SDS011;35756;52.346;13.622;2022-07-31T11:03:46;4.88;;;3.55;;
49858;SDS011;35756;52.346;13.622;2022-07-31T11:06:13;5.28;;;3.35;;
49858;SDS011;35756;52.346;13.622;2022-07-31T11:08:43;4.93;;;4.00;;
49858;SDS011;35756;52.346;13.622;2022-07-31T11:11:12;4.32;;;3.55;;
49858;SDS011;35756;52.346;13.622;2022-07-31T11:13:45;5.72;;;4.00;;
49858;SDS011;35756;52.346;13.622;2022-07-31T11:16:12;4.88;;;3.97;;
49858;SDS011;35756;52.346;13.622;2022-07-31T11:18:37;3.67;;;3.28;;
49858;SDS011;35756;52.346;13.622;2022-07-31T11:21:03;5.85;;;3.70;;
49858;SDS011;35756;52.346;13.622;2022-07-31T11:23:31;4.03;;;3.33;;
49858;SDS011;35756;52.346;13.622;2022-07-31T11:25:58;7.25;;;3.70;;
49858;SDS011;35756;52.346;13.622;2022-07-31T11:28:28;5.00;;;3.80;;
49858;SDS011;35756;52.346;13.622;2022-07-31T11:30:54;5.90;;;3.30;;
49858;SDS011;35756;52.346;13.622;2022-07-31T11:33:38;5.75;;;3.90;;
49858;SDS011;35756;52.346;13.622;2022-07-31T11:38:34;5.53;;;3.78;;
49858;SDS011;35756;52.346;13.622;2022-07-31T11:41:00;4.75;;;2.95;;
49858;SDS011;35756;52.346;13.622;2022-07-31T11:43:26;7.10;;;3.40;;
49858;SDS011;35756;52.346;13.622;2022-07-31T11:45:52;3.78;;;3.30;;
49858;SDS011;35756;52.346;13.622;2022-07-31T11:48:19;6.90;;;3.53;;
49858;SDS011;35756;52.346;13.622;2022-07-31T11:50:45;5.00;;;3.40;;
49858;SDS011;35756;52.346;13.622;2022-07-31T11:53:12;6.32;;;3.65;;
49858;SDS011;35756;52.346;13.622;2022-07-31T11:58:22;5.03;;;3.50;;
49858;SDS011;35756;52.346;13.622;2022-07-31T12:00:53;3.75;;;3.33;;
49858;SDS011;35756;52.346;13.622;2022-07-31T12:03:21;5.80;;;3.45;;
49858;SDS011;35756;52.346;13.622;2022-07-31T12:05:48;4.05;;;3.28;;
49858;SDS011;35756;52.346;13.622;2022-07-31T12:08:16;4.88;;;3.30;;
49858;SDS011;35756;52.346;13.622;2022-07-31T12:10:41;4.05;;;3.47;;
49858;SDS011;35756;52.346;13.622;2022-07-31T12:13:11;4.13;;;3.25;;
49858;SDS011;35756;52.346;13.622;2022-07-31T12:15:37;5.00;;;3.30;;
49858;SDS011;35756;52.346;13.622;2022-07-31T12:18:03;4.78;;;3.65;;
49858;SDS011;35756;52.346;13.622;2022-07-31T12:20:29;6.28;;;3.50;;
49858;SDS011;35756;52.346;13.622;2022-07-31T12:22:56;4.90;;;3.20;;
49858;SDS011;35756;52.346;13.622;2022-07-31T12:25:22;4.45;;;3.60;;
49858;SDS011;35756;52.346;13.622;2022-07-31T12:27:51;3.50;;;3.00;;
49858;SDS011;35756;52.346;13.622;2022-07-31T12:30:20;4.10;;;3.63;;
49858;SDS011;35756;52.346;13.622;2022-07-31T12:32:48;4.70;;;3.38;;
49858;SDS011;35756;52.346;13.622;2022-07-31T12:35:14;4.10;;;3.50;;
49858;SDS011;35756;52.346;13.622;2022-07-31T12:37:43;6.20;;;3.85;;
49858;SDS011;35756;52.346;13.622;2022-07-31T12:40:19;7.60;;;4.15;;
49858;SDS011;35756;52.346;13.622;2022-07-31T12:42:46;6.07;;;3.38;;
49858;SDS011;35756;52.346;13.622;2022-07-31T12:45:11;5.68;;;3.60;;
49858;SDS011;35756;52.346;13.622;2022-07-31T12:47:36;4.50;;;3.58;;
49858;SDS011;35756;52.346;13.622;2022-07-31T12:50:02;5.47;;;3.65;;
49858;SDS011;35756;52.346;13.622;2022-07-31T12:52:28;4.40;;;3.60;;
49858;SDS011;35756;52.346;13.622;2022-07-31T12:54:59;4.57;;;3.13;;
49858;SDS011;35756;52.346;13.622;2022-07-31T12:57:26;4.50;;;3.30;;
49858;SDS011;35756;52.346;13.622;2022-07-31T12:59:52;5.15;;;3.35;;
49858;SDS011;35756;52.346;13.622;2022-07-31T13:02:18;7.03;;;3.45;;
49858;SDS011;35756;52.346;13.622;2022-07-31T13:04:43;5.55;;;3.72;;
49858;SDS011;35756;52.346;13.622;2022-07-31T13:07:08;5.15;;;3.15;;
49858;SDS011;35756;52.346;13.622;2022-07-31T13:09:34;5.18;;;3.85;;
49858;SDS011;35756;52.346;13.622;2022-07-31T13:11:59;5.13;;;3.50;;
49858;SDS011;35756;52.346;13.622;2022-07-31T13:14:24;4.43;;;3.25;;
49858;SDS011;35756;52.346;13.622;2022-07-31T13:16:50;6.18;;;3.58;;
49858;SDS011;35756;52.346;13.622;2022-07-31T13:19:16;4.35;;;3.40;;
49858;SDS011;35756;52.346;13.622;2022-07-31T13:21:42;3.92;;;3.50;;
49858;SDS011;35756;52.346;13.622;2022-07-31T13:24:08;6.88;;;3.40;;
49858;SDS011;35756;52.346;13.622;2022-07-31T13:26:34;5.00;;;3.08;;
49858;SDS011;35756;52.346;13.622;2022-07-31T13:29:00;6.43;;;4.20;;
49858;SDS011;35756;52.346;13.622;2022-07-31T13:31:25;5.32;;;3.70;;
49858;SDS011;35756;52.346;13.622;2022-07-31T13:33:51;5.03;;;3.67;;
49858;SDS011;35756;52.346;13.622;2022-07-31T13:36:16;5.40;;;3.55;;
49858;SDS011;35756;52.346;13.622;2022-07-31T13:38:41;4.78;;;3.40;;
49858;SDS011;35756;52.346;13.622;2022-07-31T13:41:07;6.72;;;3.88;;
49858;SDS011;35756;52.346;13.622;2022-07-31T13:43:45;4.53;;;3.40;;
49858;SDS011;35756;52.346;13.622;2022-07-31T13:46:10;7.40;;;3.38;;
49858;SDS011;35756;52.346;13.622;2022-07-31T13:48:36;4.35;;;3.45;;
49858;SDS011;35756;52.346;13.622;2022-07-31T13:51:01;6.03;;;3.30;;
49858;SDS011;35756;52.346;13.622;2022-07-31T13:53:27;7.10;;;3.60;;
49858;SDS011;35756;52.346;13.622;2022-07-31T13:55:52;4.65;;;3.40;;
49858;SDS011;35756;52.346;13.622;2022-07-31T13:58:18;4.50;;;3.55;;
49858;SDS011;35756;52.346;13.622;2022-07-31T14:00:44;4.63;;;3.70;;
49858;SDS011;35756;52.346;13.622;2022-07-31T14:03:09;4.18;;;3.35;;
49858;SDS011;35756;52.346;13.622;2022-07-31T14:05:36;5.68;;;3.35;;
49858;SDS011;35756;52.346;13.622;2022-07-31T14:08:01;5.15;;;3.63;;
49858;SDS011;35756;52.346;13.622;2022-07-31T14:10:26;5.75;;;3.60;;
49858;SDS011;35756;52.346;13.622;2022-07-31T14:12:52;7.20;;;3.50;;
49858;SDS011;35756;52.346;13.622;2022-07-31T14:15:17;6.13;;;3.35;;
49858;SDS011;35756;52.346;13.622;2022-07-31T14:17:42;5.57;;;3.30;;
49858;SDS011;35756;52.346;13.622;2022-07-31T14:20:08;6.70;;;3.40;;
49858;SDS011;35756;52.346;13.622;2022-07-31T14:22:33;5.85;;;3.60;;
49858;SDS011;35756;52.346;13.622;2022-07-31T14:24:59;6.30;;;3.30;;
49858;SDS011;35756;52.346;13.622;2022-07-31T14:27:24;6.75;;;3.13;;
49858;SDS011;35756;52.346;13.622;2022-07-31T14:29:49;4.70;;;3.85;;
49858;SDS011;35756;52.346;13.622;2022-07-31T14:32:15;16.77;;;3.80;;
49858;SDS011;35756;52.346;13.622;2022-07-31T14:34:40;5.90;;;3.38;;
49858;SDS011;35756;52.346;13.622;2022-07-31T14:37:06;6.93;;;3.08;;
49858;SDS011;35756;52.346;13.622;2022-07-31T14:39:31;5.50;;;3.30;;
49858;SDS011;35756;52.346;13.622;2022-07-31T14:41:56;8.32;;;3.67;;
49858;SDS011;35756;52.346;13.622;2022-07-31T14:44:21;8.25;;;3.55;;